Time;durP1;ratioP1;P1;durP2;ratioP2;P2;SDS_P1;SDS_P2;PMS_P1;PMS_P2;Temp;Humidity;BMP_temperature;BMP_pressure;BME280_temperature;BME280_humidity;BME280_pressure;Samples;Min_cycle;Max_cycle;Signal;HPM_P1;HPM_P2
2023/05/02 00:00:44;;;;;;;45.00;21.92;;;;;;;11.96;100.00;101855.00;5002839;28;20038;-71
2023/05/02 00:03:10;;;;;;;45.88;21.52;;;;;;;11.92;100.00;101854.28;5001730;28;20026;-72
2023/05/02 00:05:36;;;;;;;46.80;21.35;;;;;;;12.11;100.00;101859.53;5000366;28;20038;-72
2023/05/02 00:08:01;;;;;;;46.45;21.20;;;;;;;12.08;100.00;101857.88;5020447;28;20074;-72
2023/05/02 00:10:27;;;;;;;42.35;22.85;;;;;;;11.97;100.00;101868.28;5008502;28;20038;-72
2023/05/02 00:12:53;;;;;;;41.38;20.95;;;;;;;12.09;100.00;101861.41;5003873;28;20038;-71
2023/05/02 00:15:19;;;;;;;42.10;22.00;;;;;;;12.29;100.00;101857.66;4999803;28;20030;-70
2023/05/02 00:17:44;;;;;;;43.60;20.75;;;;;;;12.13;100.00;101854.97;5024308;28;20470;-71
2023/05/02 00:20:10;;;;;;;40.60;21.10;;;;;;;12.20;100.00;101856.38;5001527;28;20165;-71
2023/05/02 00:22:37;;;;;;;46.38;22.30;;;;;;;12.31;100.00;101853.13;4999899;28;20026;-74
2023/05/02 00:25:03;;;;;;;41.33;19.80;;;;;;;12.10;100.00;101857.81;4995906;28;20045;-71
2023/05/02 00:27:30;;;;;;;37.42;19.15;;;;;;;12.01;100.00;101855.63;4983921;28;20042;-72
2023/05/02 00:29:57;;;;;;;31.38;15.57;;;;;;;11.88;100.00;101861.59;4995087;28;20090;-72
2023/05/02 00:32:22;;;;;;;33.78;15.70;;;;;;;11.97;100.00;101867.44;4994683;28;20034;-73
2023/05/02 00:34:48;;;;;;;34.90;16.67;;;;;;;11.94;100.00;101868.44;4994252;28;20105;-73
2023/05/02 00:37:14;;;;;;;33.72;16.15;;;;;;;12.00;100.00;101868.13;4998348;28;20046;-71
2023/05/02 00:39:39;;;;;;;38.20;18.13;;;;;;;12.04;100.00;101864.31;4993159;28;20809;-73
2023/05/02 00:42:08;;;;;;;34.90;16.65;;;;;;;12.00;100.00;101869.91;4992604;28;20026;-73
2023/05/02 00:44:34;;;;;;;32.80;15.18;;;;;;;12.01;100.00;101871.66;5007751;28;20061;-71
2023/05/02 00:47:00;;;;;;;27.10;14.70;;;;;;;12.03;100.00;101875.13;4992611;28;20034;-71
2023/05/02 00:49:26;;;;;;;26.33;12.55;;;;;;;11.81;100.00;101872.69;4993060;28;20034;-72
2023/05/02 00:51:52;;;;;;;23.00;11.65;;;;;;;11.84;100.00;101869.84;4993136;28;20057;-72
2023/05/02 00:54:18;;;;;;;24.20;12.68;;;;;;;11.92;100.00;101881.88;5007202;28;21529;-71
2023/05/02 00:56:44;;;;;;;28.38;13.65;;;;;;;11.90;100.00;101872.25;4992493;28;20049;-71
2023/05/02 00:59:10;;;;;;;22.75;12.38;;;;;;;11.99;100.00;101874.41;5000352;28;20049;-70
2023/05/02 01:01:46;;;;;;;24.05;12.30;;;;;;;11.89;100.00;101879.38;5006697;28;20041;-71
2023/05/02 01:04:48;;;;;;;26.50;12.75;;;;;;;11.93;100.00;101882.75;4998982;28;20109;-71
2023/05/02 01:07:36;;;;;;;29.92;12.98;;;;;;;11.78;100.00;101883.50;4998557;28;20030;-71
2023/05/02 01:10:32;;;;;;;25.52;13.60;;;;;;;11.82;100.00;101887.78;4988496;28;20038;-71
2023/05/02 01:13:01;;;;;;;23.35;12.63;;;;;;;11.83;100.00;101882.38;4996290;28;20034;-71
2023/05/02 01:15:27;;;;;;;25.98;14.38;;;;;;;11.85;100.00;101883.16;5000255;28;20508;-71
2023/05/02 01:17:55;;;;;;;29.23;14.38;;;;;;;11.77;100.00;101884.47;4992656;28;20043;-70
2023/05/02 01:20:26;;;;;;;31.65;15.10;;;;;;;11.80;100.00;101876.31;4988807;28;20042;-71
2023/05/02 01:22:57;;;;;;;30.80;15.43;;;;;;;11.88;100.00;101874.09;4997509;28;20926;-72
2023/05/02 01:25:36;;;;;;;28.05;14.77;;;;;;;12.03;100.00;101883.13;4992660;28;20122;-71
2023/05/02 01:28:27;;;;;;;30.55;15.75;;;;;;;11.89;100.00;101878.50;4993283;28;20049;-72
2023/05/02 01:30:55;;;;;;;29.42;16.15;;;;;;;12.00;100.00;101877.94;4991570;28;20034;-72
2023/05/02 01:33:24;;;;;;;29.52;14.77;;;;;;;11.84;100.00;101878.75;5003773;28;20034;-73
2023/05/02 01:35:51;;;;;;;25.90;15.45;;;;;;;12.01;100.00;101880.56;5001838;28;20153;-73
2023/05/02 01:38:19;;;;;;;29.73;14.65;;;;;;;11.89;100.00;101881.19;4992571;28;20085;-72
2023/05/02 01:40:46;;;;;;;28.65;15.57;;;;;;;11.95;100.00;101880.00;4998000;28;20134;-72
2023/05/02 01:43:14;;;;;;;28.42;15.50;;;;;;;11.96;100.00;101890.63;5001604;28;20042;-73
2023/05/02 01:45:44;;;;;;;28.08;14.27;;;;;;;12.10;100.00;101885.41;4992388;28;20039;-73
2023/05/02 01:48:11;;;;;;;32.03;15.82;;;;;;;12.05;100.00;101895.50;4992771;28;20882;-72
2023/05/02 01:50:40;;;;;;;24.58;14.38;;;;;;;12.03;100.00;101896.50;4992145;28;20042;-72
2023/05/02 01:53:10;;;;;;;24.30;14.18;;;;;;;12.04;100.00;101899.09;4992658;28;20181;-72
2023/05/02 01:55:37;;;;;;;31.67;15.98;;;;;;;11.89;100.00;101894.53;4999022;28;20049;-72
2023/05/02 01:58:05;;;;;;;35.13;16.60;;;;;;;12.02;100.00;101902.78;4998393;28;20049;-72
2023/05/02 02:00:32;;;;;;;31.75;17.00;;;;;;;11.95;100.00;101904.03;4992812;28;20782;-72
2023/05/02 02:02:59;;;;;;;32.13;17.30;;;;;;;12.00;100.00;101907.34;4991438;28;20036;-72
2023/05/02 02:05:27;;;;;;;33.17;17.20;;;;;;;12.04;100.00;101912.44;5012657;28;20038;-73
2023/05/02 02:07:52;;;;;;;36.50;17.15;;;;;;;12.05;100.00;101914.22;4999972;28;20042;-73
2023/05/02 02:10:18;;;;;;;35.47;17.90;;;;;;;12.07;100.00;101914.97;5002995;28;20038;-72
2023/05/02 02:12:53;;;;;;;33.55;18.92;;;;;;;12.05;100.00;101916.88;4992426;28;20984;-71
2023/05/02 02:15:25;;;;;;;35.42;19.88;;;;;;;12.08;100.00;101919.38;5000838;28;20042;-73
2023/05/02 02:18:01;;;;;;;30.92;17.50;;;;;;;12.10;100.00;101911.28;4998388;28;21004;-72
2023/05/02 02:20:31;;;;;;;30.73;17.92;;;;;;;12.05;100.00;101915.97;4997663;28;20038;-73
2023/05/02 02:22:59;;;;;;;33.05;18.02;;;;;;;12.12;100.00;101920.09;5011009;28;20029;-73
2023/05/02 02:25:26;;;;;;;42.85;18.70;;;;;;;12.08;100.00;101915.84;5003152;28;20038;-73
2023/05/02 02:27:52;;;;;;;32.65;18.10;;;;;;;12.10;100.00;101922.00;4990345;28;20038;-73
2023/05/02 02:30:18;;;;;;;37.00;18.50;;;;;;;12.03;100.00;101917.88;4991539;28;20046;-72
2023/05/02 02:32:43;;;;;;;34.35;20.10;;;;;;;12.04;100.00;101920.47;4996537;28;20034;-72
2023/05/02 02:35:09;;;;;;;39.53;19.05;;;;;;;12.06;100.00;101923.94;4993224;28;20049;-73
2023/05/02 02:37:44;;;;;;;41.40;19.63;;;;;;;12.04;100.00;101931.16;5004128;28;20109;-73
2023/05/02 02:40:21;;;;;;;28.95;14.30;;;;;;;11.83;100.00;101946.50;5002496;28;20046;-73
2023/05/02 02:43:19;;;;;;;22.27;9.82;;;;;;;11.68;100.00;101942.75;4989914;28;21096;-71
2023/05/02 02:45:55;;;;;;;13.55;7.95;;;;;;;11.56;100.00;101954.06;5007424;28;20290;-71
2023/05/02 02:48:48;;;;;;;18.60;8.43;;;;;;;11.44;100.00;101961.81;4996574;28;20061;-71
2023/05/02 02:51:42;;;;;;;16.23;7.35;;;;;;;11.22;100.00;101975.34;5001606;28;20065;-71
2023/05/02 02:54:19;;;;;;;18.58;5.78;;;;;;;11.21;100.00;101977.16;4987659;28;20062;-71
2023/05/02 02:56:47;;;;;;;16.65;6.63;;;;;;;11.20;100.00;101985.25;4990118;28;20022;-69
2023/05/02 02:59:27;;;;;;;11.23;4.55;;;;;;;11.10;100.00;101984.81;4990081;28;20266;-73
2023/05/02 03:02:04;;;;;;;12.35;6.13;;;;;;;11.21;100.00;101984.31;5000264;28;20034;-73
2023/05/02 03:04:32;;;;;;;15.68;5.07;;;;;;;11.33;100.00;101989.91;4990229;28;20142;-72
2023/05/02 03:07:00;;;;;;;9.02;4.50;;;;;;;11.38;100.00;101987.88;4990079;28;20042;-70
2023/05/02 03:09:29;;;;;;;12.65;4.63;;;;;;;11.31;100.00;101993.59;4987679;28;20039;-74
2023/05/02 03:11:56;;;;;;;10.50;4.10;;;;;;;11.33;100.00;101991.72;4990553;28;20066;-71
2023/05/02 03:14:23;;;;;;;9.02;3.70;;;;;;;11.37;100.00;101998.66;5002092;28;20030;-70
2023/05/02 03:16:50;;;;;;;17.35;4.35;;;;;;;11.39;100.00;102002.09;5004618;28;20040;-71
2023/05/02 03:19:17;;;;;;;8.63;4.18;;;;;;;11.37;100.00;101999.50;4989881;28;20074;-72
2023/05/02 03:21:42;;;;;;;11.90;4.18;;;;;;;11.30;100.00;102010.56;5009567;28;20030;-71
2023/05/02 03:24:17;;;;;;;14.05;3.85;;;;;;;11.40;100.00;102012.72;5005035;28;20049;-70
2023/05/02 03:26:43;;;;;;;17.73;3.60;;;;;;;11.55;100.00;102007.59;4993047;28;20046;-71
2023/05/02 03:29:11;;;;;;;10.07;4.07;;;;;;;11.34;100.00;102010.31;4989010;28;20039;-73
2023/05/02 03:31:39;;;;;;;9.80;3.33;;;;;;;11.41;100.00;102011.78;5001198;28;20038;-72
2023/05/02 03:34:05;;;;;;;10.23;3.92;;;;;;;11.33;100.00;102021.09;4997688;28;20039;-72
2023/05/02 03:36:31;;;;;;;12.75;3.45;;;;;;;11.33;100.00;102023.75;5005078;28;20027;-73
2023/05/02 03:38:57;;;;;;;8.20;3.75;;;;;;;11.46;100.00;102019.56;4982116;28;20046;-72
2023/05/02 03:41:26;;;;;;;12.95;3.90;;;;;;;11.54;100.00;102024.53;5005733;28;20932;-72
2023/05/02 03:43:59;;;;;;;18.67;3.63;;;;;;;11.44;100.00;102020.56;5007384;28;20073;-73
2023/05/02 03:46:26;;;;;;;13.48;3.55;;;;;;;11.54;100.00;102032.53;5005538;28;20122;-73
2023/05/02 03:48:52;;;;;;;12.52;3.80;;;;;;;11.49;100.00;102026.56;5002872;28;20097;-73
2023/05/02 03:51:17;;;;;;;8.80;3.67;;;;;;;11.43;100.00;102042.88;4987091;28;20034;-72
2023/05/02 03:53:48;;;;;;;13.65;3.78;;;;;;;11.40;100.00;102044.78;4996822;28;20039;-72
2023/05/02 03:56:20;;;;;;;14.00;4.03;;;;;;;11.29;100.00;102047.06;4997478;28;20030;-72
2023/05/02 03:58:53;;;;;;;14.55;3.10;;;;;;;11.29;100.00;102051.53;4984166;28;20042;-72
2023/05/02 04:01:22;;;;;;;13.43;4.18;;;;;;;11.21;100.00;102048.38;5003275;28;20044;-73
2023/05/02 04:03:54;;;;;;;10.32;3.42;;;;;;;11.12;100.00;102050.53;4979535;28;20037;-72
2023/05/02 04:06:22;;;;;;;17.13;4.32;;;;;;;11.23;100.00;102052.69;4974783;28;20041;-73
2023/05/02 04:08:54;;;;;;;;;;;;;;;11.23;100.00;102050.03;4996949;28;20038;-72
2023/05/02 04:11:21;;;;;;;11.85;2.90;;;;;;;11.34;100.00;102053.06;5005251;28;19996;-72
2023/05/02 04:13:47;;;;;;;10.10;3.67;;;;;;;11.32;100.00;102054.94;4993671;28;20039;-72
2023/05/02 04:16:13;;;;;;;9.57;3.30;;;;;;;11.30;100.00;102059.50;4989502;28;20037;-72
2023/05/02 04:18:39;;;;;;;11.77;3.17;;;;;;;11.29;100.00;102062.22;4977809;28;20058;-73
2023/05/02 04:21:08;;;;;;;10.20;3.47;;;;;;;11.25;100.00;102055.31;5013344;28;20908;-72
2023/05/02 04:23:34;;;;;;;9.45;3.67;;;;;;;11.25;100.00;102066.00;4994245;28;20042;-72
2023/05/02 04:26:01;;;;;;;14.07;3.45;;;;;;;11.27;100.00;102069.47;5001475;28;20046;-72
2023/05/02 04:28:34;;;;;;;11.70;3.75;;;;;;;11.37;100.00;102066.28;4978332;28;20504;-73
2023/05/02 04:31:02;;;;;;;11.98;3.88;;;;;;;11.33;100.00;102069.16;5015171;28;20274;-70
2023/05/02 04:33:27;;;;;;;16.77;4.95;;;;;;;11.24;100.00;102078.47;5004092;28;20034;-72
2023/05/02 04:35:54;;;;;;;6.55;2.92;;;;;;;11.35;100.00;102084.19;4998398;28;20534;-73
2023/05/02 04:38:26;;;;;;;15.50;3.42;;;;;;;11.22;100.00;102085.69;5021260;28;20051;-71
2023/05/02 04:40:51;;;;;;;10.20;3.55;;;;;;;11.21;100.00;102089.31;5034580;28;20077;-73
2023/05/02 04:43:22;;;;;;;12.82;3.95;;;;;;;11.26;100.00;102097.97;4988803;28;20043;-73
2023/05/02 04:45:53;;;;;;;13.75;3.33;;;;;;;11.27;100.00;102104.16;5015745;28;20053;-72
2023/05/02 04:48:25;;;;;;;17.52;3.95;;;;;;;10.94;100.00;102107.41;4996969;28;20038;-72
2023/05/02 04:50:55;;;;;;;12.60;3.67;;;;;;;10.82;100.00;102113.31;4993586;28;20034;-72
2023/05/02 04:53:22;;;;;;;10.93;3.30;;;;;;;10.38;100.00;102134.75;5014148;28;20034;-72
2023/05/02 04:55:48;;;;;;;14.73;4.40;;;;;;;10.30;100.00;102144.88;4999190;28;20038;-73
2023/05/02 04:58:14;;;;;;;16.75;5.93;;;;;;;10.30;100.00;102151.06;5011655;28;20129;-72
2023/05/02 05:00:41;;;;;;;14.00;4.90;;;;;;;10.20;100.00;102148.81;5011634;28;20121;-71
2023/05/02 05:03:07;;;;;;;14.38;4.40;;;;;;;10.34;100.00;102149.13;5016972;28;20823;-72
2023/05/02 05:05:33;;;;;;;17.17;4.47;;;;;;;10.20;100.00;102152.34;5008058;28;20104;-72
2023/05/02 05:07:59;;;;;;;23.88;5.93;;;;;;;10.23;100.00;102170.88;5020623;28;20033;-74
2023/05/02 05:10:29;;;;;;;17.10;5.68;;;;;;;10.05;100.00;102160.97;4994397;28;20113;-71
2023/05/02 05:12:57;;;;;;;19.83;4.20;;;;;;;10.17;100.00;102159.59;5011535;28;20035;-71
2023/05/02 05:15:24;;;;;;;19.20;4.60;;;;;;;10.44;100.00;102160.28;5008422;28;20030;-71
2023/05/02 05:17:55;;;;;;;17.73;5.05;;;;;;;10.46;100.00;102153.97;5006282;28;20866;-71
2023/05/02 05:20:25;;;;;;;15.05;3.75;;;;;;;10.47;100.00;102165.50;5021683;28;20034;-72
2023/05/02 05:22:56;;;;;;;15.18;4.43;;;;;;;10.48;100.00;102170.75;4983628;28;20093;-72
2023/05/02 05:25:24;;;;;;;16.90;4.18;;;;;;;10.44;100.00;102169.19;4997140;28;20048;-72
2023/05/02 05:27:51;;;;;;;14.93;4.50;;;;;;;10.58;100.00;102171.25;5006782;28;20061;-71
2023/05/02 05:30:17;;;;;;;10.52;4.15;;;;;;;10.38;100.00;102172.06;4996434;28;20038;-72
2023/05/02 05:32:43;;;;;;;14.48;4.25;;;;;;;10.36;100.00;102187.28;5003995;28;20037;-71
2023/05/02 05:35:09;;;;;;;16.00;4.40;;;;;;;10.36;100.00;102189.94;5016332;28;20042;-71
2023/05/02 05:37:38;;;;;;;17.08;5.03;;;;;;;10.39;100.00;102203.13;5016993;28;20026;-71
2023/05/02 05:40:08;;;;;;;18.65;5.70;;;;;;;10.37;100.00;102191.69;4985522;28;20034;-71
2023/05/02 05:42:34;;;;;;;23.45;6.07;;;;;;;10.47;100.00;102197.50;4996722;28;20046;-72
2023/05/02 05:45:05;;;;;;;16.30;5.75;;;;;;;10.52;100.00;102204.38;4989265;28;20070;-71
2023/05/02 05:47:31;;;;;;;17.42;5.85;;;;;;;10.48;100.00;102202.75;5007470;28;20137;-72
2023/05/02 05:49:57;;;;;;;28.27;5.45;;;;;;;10.32;100.00;102212.31;5005764;28;20114;-70
2023/05/02 05:52:27;;;;;;;21.65;5.38;;;;;;;10.44;100.00;102214.50;5006734;28;20033;-72
2023/05/02 05:54:55;;;;;;;19.58;5.75;;;;;;;10.44;100.00;102224.28;5002296;28;20068;-71
2023/05/02 05:57:22;;;;;;;22.25;6.50;;;;;;;10.47;100.00;102222.38;5012308;28;20064;-72
2023/05/02 05:59:48;;;;;;;26.23;6.78;;;;;;;10.01;100.00;102237.50;4989806;28;20080;-72
2023/05/02 06:02:15;;;;;;;20.17;5.68;;;;;;;9.96;100.00;102238.59;4984045;28;20829;-71
2023/05/02 06:04:41;;;;;;;15.70;4.78;;;;;;;10.50;100.00;102243.59;4994217;28;20121;-72
2023/05/02 06:07:08;;;;;;;25.35;5.20;;;;;;;10.08;100.00;102254.97;5010227;28;20038;-72
2023/05/02 06:09:33;;;;;;;22.00;6.13;;;;;;;10.29;100.00;102256.00;4992292;28;20142;-72
2023/05/02 06:12:01;;;;;;;12.82;3.90;;;;;;;10.26;100.00;102269.44;4995592;28;20030;-72
2023/05/02 06:14:27;;;;;;;13.07;3.72;;;;;;;10.37;100.00;102275.19;5012542;28;20030;-71
2023/05/02 06:16:53;;;;;;;20.95;4.82;;;;;;;10.32;100.00;102271.84;4992833;28;20392;-71
2023/05/02 06:19:18;;;;;;;18.52;4.38;;;;;;;9.73;100.00;102274.94;4992653;28;20045;-71
2023/05/02 06:21:44;;;;;;;12.20;4.00;;;;;;;9.61;100.00;102280.75;4993679;28;20034;-72
2023/05/02 06:24:09;;;;;;;18.58;4.40;;;;;;;9.83;100.00;102279.00;4992417;28;20038;-72
2023/05/02 06:26:36;;;;;;;18.35;4.68;;;;;;;10.41;100.00;102275.97;4999805;28;20046;-72
2023/05/02 06:29:02;;;;;;;25.45;5.15;;;;;;;9.64;100.00;102290.41;4997168;28;20031;-71
2023/05/02 06:31:27;;;;;;;24.25;5.50;;;;;;;9.42;100.00;102293.84;4992829;28;20038;-71
2023/05/02 06:33:53;;;;;;;29.33;5.15;;;;;;;9.68;100.00;102302.69;5002808;28;20042;-72
2023/05/02 06:36:19;;;;;;;22.17;5.18;;;;;;;9.62;100.00;102303.78;5004486;28;20042;-71
2023/05/02 06:38:44;;;;;;;19.88;5.40;;;;;;;10.28;100.00;102296.03;4993080;28;20377;-71
2023/05/02 06:41:14;;;;;;;28.30;5.22;;;;;;;10.09;100.00;102307.38;4998249;28;20042;-70
2023/05/02 06:43:40;;;;;;;28.77;5.70;;;;;;;10.00;100.00;102313.03;5000201;28;20038;-71
2023/05/02 06:46:07;;;;;;;26.45;5.25;;;;;;;10.05;100.00;102321.75;4997423;28;20061;-71
2023/05/02 06:48:34;;;;;;;26.30;5.53;;;;;;;9.99;100.00;102321.06;4998854;28;20058;-71
2023/05/02 06:51:00;;;;;;;22.92;5.38;;;;;;;10.05;100.00;102331.53;5002012;28;20111;-70
2023/05/02 06:53:29;;;;;;;17.42;5.15;;;;;;;10.19;100.00;102323.88;4995124;28;20062;-72
2023/05/02 06:55:54;;;;;;;29.13;7.00;;;;;;;9.90;100.00;102340.97;5007326;28;20046;-72
2023/05/02 06:58:20;;;;;;;28.15;6.05;;;;;;;9.83;100.00;102342.94;4992393;28;20129;-71
2023/05/02 07:00:47;;;;;;;20.75;5.63;;;;;;;9.69;100.00;102345.28;5013433;28;20041;-71
2023/05/02 07:03:13;;;;;;;25.88;5.50;;;;;;;9.75;100.00;102345.03;4989176;28;20043;-72
2023/05/02 07:05:38;;;;;;;24.20;5.47;;;;;;;9.74;100.00;102351.31;4995532;28;20034;-73
2023/05/02 07:08:10;;;;;;;17.25;5.30;;;;;;;9.66;100.00;102355.16;4991298;28;20054;-72
2023/05/02 07:10:36;;;;;;;17.95;5.13;;;;;;;10.19;100.00;102355.88;4984349;28;20030;-72
2023/05/02 07:13:01;;;;;;;25.27;5.85;;;;;;;9.68;100.00;102362.16;4991924;28;20747;-72
2023/05/02 07:15:27;;;;;;;18.63;5.68;;;;;;;9.95;100.00;102367.44;5007071;28;20041;-73
2023/05/02 07:17:52;;;;;;;25.92;6.93;;;;;;;10.10;100.00;102381.06;4994423;28;20043;-73
2023/05/02 07:20:18;;;;;;;14.60;5.13;;;;;;;10.21;100.00;102372.69;5006039;28;20049;-71
2023/05/02 07:22:44;;;;;;;15.82;4.32;;;;;;;10.35;100.00;102374.88;4999660;28;20034;-73
2023/05/02 07:25:10;;;;;;;12.30;3.35;;;;;;;10.51;99.33;102377.81;4982734;28;20034;-72
2023/05/02 07:27:38;;;;;;;14.68;4.35;;;;;;;10.72;96.71;102379.63;5007023;28;20831;-72
2023/05/02 07:30:05;;;;;;;17.10;4.28;;;;;;;11.07;98.38;102374.69;5005468;28;20034;-70
2023/05/02 07:32:31;;;;;;;13.80;3.50;;;;;;;10.89;94.81;102378.97;4993906;28;20034;-71
2023/05/02 07:34:56;;;;;;;10.80;3.38;;;;;;;11.00;98.24;102387.44;4989997;28;20038;-70
2023/05/02 07:37:22;;;;;;;15.27;4.28;;;;;;;10.69;95.02;102385.06;4990667;28;20042;-70
2023/05/02 07:39:48;;;;;;;15.40;3.80;;;;;;;11.04;96.78;102394.34;4991658;28;20082;-70
2023/05/02 07:42:13;;;;;;;14.63;4.00;;;;;;;11.55;92.89;102398.50;5006605;28;20035;-69
2023/05/02 07:44:39;;;;;;;14.77;4.25;;;;;;;10.57;89.60;102391.78;4990952;28;20052;-70
2023/05/02 07:47:05;;;;;;;11.13;3.47;;;;;;;11.19;89.15;102386.66;4990805;28;20037;-73
2023/05/02 07:49:31;;;;;;;14.82;3.65;;;;;;;11.19;90.37;102392.00;5005337;28;20857;-72
2023/05/02 07:51:57;;;;;;;15.93;3.38;;;;;;;10.63;91.31;102407.53;4989595;28;20031;-71
2023/05/02 07:54:25;;;;;;;15.35;4.00;;;;;;;10.71;89.59;102398.38;4996389;28;20988;-71
2023/05/02 07:56:51;;;;;;;13.40;4.03;;;;;;;11.58;85.18;102409.03;5018539;28;20038;-71
2023/05/02 07:59:17;;;;;;;14.77;4.10;;;;;;;12.23;83.61;102404.44;5010513;28;20065;-71
2023/05/02 08:01:43;;;;;;;14.45;3.88;;;;;;;12.58;81.01;102404.63;5013365;28;20472;-70
2023/05/02 08:04:11;;;;;;;20.15;4.25;;;;;;;10.60;87.64;102421.00;4994108;28;20499;-70
2023/05/02 08:06:37;;;;;;;19.55;4.88;;;;;;;10.39;92.12;102421.78;4992504;28;20169;-70
2023/05/02 08:09:02;;;;;;;15.05;3.80;;;;;;;10.20;90.90;102428.72;4994907;28;20145;-70
2023/05/02 08:11:28;;;;;;;18.02;4.45;;;;;;;10.41;88.37;102425.28;4994310;28;20089;-71
2023/05/02 08:13:54;;;;;;;6.20;2.65;;;;;;;9.57;86.12;102449.53;4998433;28;20073;-70
2023/05/02 08:16:20;;;;;;;8.05;3.17;;;;;;;10.08;83.17;102438.88;4998836;28;20077;-73
2023/05/02 08:18:45;;;;;;;11.82;3.65;;;;;;;9.84;81.83;102439.75;4995384;28;20073;-71
2023/05/02 08:21:11;;;;;;;10.88;2.88;;;;;;;10.04;82.70;102439.94;4994121;28;20621;-71
2023/05/02 08:23:40;;;;;;;13.57;3.13;;;;;;;10.58;82.51;102440.66;4994794;28;20046;-71
2023/05/02 08:26:06;;;;;;;9.13;3.00;;;;;;;11.26;78.99;102444.25;4996083;28;20113;-71
2023/05/02 08:28:34;;;;;;;15.68;3.03;;;;;;;11.65;72.09;102439.94;5010556;28;20583;-72
2023/05/02 08:31:00;;;;;;;14.60;2.40;;;;;;;10.84;75.58;102451.22;4994556;28;20030;-71
2023/05/02 08:33:28;;;;;;;7.47;2.85;;;;;;;10.85;75.64;102447.63;5001491;28;20971;-72
2023/05/02 08:35:54;;;;;;;9.57;2.60;;;;;;;11.50;77.52;102456.59;5001411;28;20053;-70
2023/05/02 08:38:19;;;;;;;7.32;2.88;;;;;;;12.30;77.80;102458.53;4994706;28;20046;-71
2023/05/02 08:40:45;;;;;;;7.00;2.40;;;;;;;12.62;72.66;102459.75;5000213;28;20022;-70
2023/05/02 08:43:11;;;;;;;15.32;2.83;;;;;;;12.90;68.75;102460.22;5009621;28;20808;-71
2023/05/02 08:45:42;;;;;;;9.38;2.72;;;;;;;13.48;64.00;102454.72;5011349;28;20068;-72
2023/05/02 08:48:10;;;;;;;7.72;2.83;;;;;;;12.86;69.61;102457.75;5009918;28;20030;-72
2023/05/02 08:50:42;;;;;;;12.68;2.92;;;;;;;13.04;67.15;102456.88;4998398;28;20036;-71
2023/05/02 08:53:09;;;;;;;6.43;2.80;;;;;;;12.15;68.37;102460.09;4995156;28;20192;-70
2023/05/02 08:55:40;;;;;;;6.10;2.60;;;;;;;13.07;63.60;102458.53;5012239;28;20066;-71
2023/05/02 08:58:08;;;;;;;11.93;2.67;;;;;;;13.20;64.77;102452.53;5011943;28;20022;-71
2023/05/02 09:00:41;;;;;;;13.77;3.20;;;;;;;12.45;67.87;102457.88;5000635;28;20042;-71
2023/05/02 09:03:26;;;;;;;11.13;3.00;;;;;;;13.42;71.30;102471.13;4995594;28;20074;-70
2023/05/02 09:05:56;;;;;;;12.00;3.30;;;;;;;12.36;68.45;102477.00;5001791;28;20084;-71
2023/05/02 09:08:23;;;;;;;10.23;2.85;;;;;;;11.70;70.13;102476.25;4998789;28;20033;-71
2023/05/02 09:10:50;;;;;;;8.30;2.75;;;;;;;12.09;67.36;102474.56;4997679;28;20138;-70
2023/05/02 09:13:38;;;;;;;7.63;3.33;;;;;;;12.79;61.65;102481.25;4993049;28;20061;-71
2023/05/02 09:16:05;;;;;;;7.32;3.08;;;;;;;13.03;59.87;102478.38;4990406;28;20046;-71
2023/05/02 09:18:46;;;;;;;7.30;3.38;;;;;;;12.60;63.32;102477.69;4993925;28;20073;-70
2023/05/02 09:21:17;;;;;;;10.73;2.67;;;;;;;12.65;63.73;102489.03;4997938;28;20035;-71
2023/05/02 09:23:50;;;;;;;9.30;3.40;;;;;;;12.54;65.18;102496.69;4993509;28;20043;-71
2023/05/02 09:26:30;;;;;;;10.27;2.67;;;;;;;12.65;63.09;102502.41;4994724;28;20462;-70
2023/05/02 09:28:56;;;;;;;7.13;2.70;;;;;;;12.78;61.10;102503.59;4998665;28;20133;-72
2023/05/02 09:31:29;;;;;;;8.23;2.80;;;;;;;13.02;56.95;102498.06;5004629;28;20045;-71
2023/05/02 09:33:56;;;;;;;12.88;2.97;;;;;;;13.43;56.34;102501.47;5000736;28;20130;-69
2023/05/02 09:36:23;;;;;;;9.65;2.60;;;;;;;14.13;54.87;102497.91;4983243;28;20038;-72
2023/05/02 09:38:52;;;;;;;8.63;2.92;;;;;;;13.64;55.20;102502.22;4999275;28;20100;-70
2023/05/02 09:41:19;;;;;;;8.43;2.95;;;;;;;12.49;59.52;102509.41;5000202;28;20160;-72
2023/05/02 09:43:56;;;;;;;8.48;3.30;;;;;;;13.16;57.33;102501.81;4999103;28;20728;-71
2023/05/02 09:46:22;;;;;;;13.32;2.78;;;;;;;12.95;59.17;102510.84;4997312;28;20057;-71
2023/05/02 09:48:51;;;;;;;12.68;3.33;;;;;;;13.45;60.04;102511.19;5006698;28;20061;-70
2023/05/02 09:51:17;;;;;;;7.97;2.53;;;;;;;13.45;54.63;102505.81;5009266;28;20049;-71
2023/05/02 09:53:44;;;;;;;7.50;3.25;;;;;;;12.88;55.72;102515.63;4998833;28;20100;-70
2023/05/02 09:56:10;;;;;;;11.10;3.55;;;;;;;12.19;58.36;102517.84;4997158;28;20035;-71
2023/05/02 09:58:35;;;;;;;11.90;3.50;;;;;;;12.58;59.13;102523.25;4996453;28;20806;-71
2023/05/02 10:01:01;;;;;;;7.35;3.03;;;;;;;12.57;61.65;102528.69;5001591;28;20844;-71
2023/05/02 10:03:28;;;;;;;9.32;2.67;;;;;;;13.31;56.97;102512.78;5002844;28;20050;-71
2023/05/02 10:05:54;;;;;;;9.02;3.25;;;;;;;13.56;58.53;102510.66;4999250;28;20038;-71
2023/05/02 10:08:21;;;;;;;8.05;2.67;;;;;;;13.43;55.99;102507.69;5009001;28;20077;-71
2023/05/02 10:10:52;;;;;;;12.85;3.10;;;;;;;13.93;55.74;102515.03;5000844;28;20138;-71
2023/05/02 10:13:21;;;;;;;9.93;3.92;;;;;;;14.38;55.08;102516.28;5003960;28;20034;-70
2023/05/02 10:16:02;;;;;;;7.15;3.20;;;;;;;13.19;54.32;102519.56;5005467;28;21061;-69
2023/05/02 10:18:53;;;;;;;8.48;3.22;;;;;;;12.61;54.99;102524.94;5007519;28;20096;-71
2023/05/02 10:21:28;;;;;;;9.65;2.80;;;;;;;13.18;56.29;102525.84;5002236;28;20038;-72
2023/05/02 10:23:55;;;;;;;5.07;2.72;;;;;;;14.04;61.42;102517.16;4998588;28;20034;-71
2023/05/02 10:26:24;;;;;;;10.23;3.20;;;;;;;13.71;58.21;102525.97;5006926;28;20035;-72
2023/05/02 10:28:50;;;;;;;10.32;3.55;;;;;;;14.72;53.17;102515.41;5001082;28;20130;-72
2023/05/02 10:31:17;;;;;;;8.27;3.00;;;;;;;14.19;56.24;102527.09;4995327;28;20030;-71
2023/05/02 10:33:46;;;;;;;11.05;3.47;;;;;;;12.31;56.94;102537.84;5006945;28;20045;-70
2023/05/02 10:36:14;;;;;;;13.55;4.45;;;;;;;12.50;57.42;102530.78;5002166;28;20065;-73
2023/05/02 10:38:41;;;;;;;9.25;3.08;;;;;;;12.98;55.91;102524.09;5007350;28;20068;-73
2023/05/02 10:41:14;;;;;;;9.10;3.17;;;;;;;13.36;54.39;102516.13;5009973;28;20120;-72
2023/05/02 10:43:44;;;;;;;16.25;3.45;;;;;;;13.60;59.49;102522.94;4995039;28;20045;-71
2023/05/02 10:46:29;;;;;;;8.30;3.30;;;;;;;13.86;56.35;102532.41;5003166;28;20787;-71
2023/05/02 10:49:12;;;;;;;9.68;3.65;;;;;;;13.58;59.90;102529.34;4993815;28;20035;-71
2023/05/02 10:51:40;;;;;;;11.43;3.50;;;;;;;13.21;60.25;102536.44;4993991;28;20053;-71
2023/05/02 10:54:23;;;;;;;7.95;3.78;;;;;;;13.52;58.60;102526.97;4997072;28;20066;-72
2023/05/02 10:57:02;;;;;;;11.10;4.32;;;;;;;13.55;54.10;102526.78;4996178;28;20056;-72
2023/05/02 10:59:41;;;;;;;8.43;3.85;;;;;;;13.78;55.20;102521.16;4994870;28;20061;-71
2023/05/02 11:02:26;;;;;;;12.68;3.80;;;;;;;12.83;57.92;102547.09;5003987;28;20172;-73
2023/05/02 11:05:03;;;;;;;14.40;3.85;;;;;;;13.01;58.77;102542.72;5017191;28;20034;-72
2023/05/02 11:07:33;;;;;;;12.52;4.32;;;;;;;12.64;54.67;102540.84;4994143;28;20088;-71
2023/05/02 11:10:26;;;;;;;13.15;3.95;;;;;;;13.56;59.20;102533.91;4999950;28;20117;-72
2023/05/02 11:12:59;;;;;;;8.20;3.72;;;;;;;12.90;57.84;102534.28;4999965;28;20315;-72
2023/05/02 11:15:28;;;;;;;13.30;4.28;;;;;;;13.35;58.88;102541.16;5000395;28;20045;-72
2023/05/02 11:18:08;;;;;;;16.13;3.60;;;;;;;13.15;56.50;102534.91;4991067;28;20515;-71
2023/05/02 11:20:35;;;;;;;16.50;4.82;;;;;;;13.58;59.84;102534.69;4988054;28;20072;-71